Urbana, Illinois
Current Conditions -  °F | °C
As of 10:53 PM on Monday 22 Dec 2014 (Local Time) from KCMI Reporting Station
Moderate Rain Moderate Rain  
Wind Chill:   Ceiling: 600
Heat Index:   Visibility: 3mi
Dew Point:   Wind: 14mph
Humidity: 93%   Direction: 150°SSE
Pressure: 29.56"   Gusts: NA
Location:  40.12°N, 88.2°W
Report Text: KCMI 230453Z 15012KT 3SM RA BR OVC006 08/07 A2956 RMK AO2 CIG 004V009 SLP013 P0007 T00830072
Loading
Personal Weather Stations






























Interactive Weather Map New forecast layout! Learn more

10-Day Weather Forecast

Advertisements
Track Severe Weather on mobile